Time;durP1;ratioP1;P1;durP2;ratioP2;P2;SDS_P1;SDS_P2;PMS_P1;PMS_P2;Temp;Humidity;BMP_temperature;BMP_pressure;BME280_temperature;BME280_humidity;BME280_pressure;Samples;Min_cycle;Max_cycle;Signal;HPM_P1;HPM_P2
2022/02/09 00:01:23;;;;;;;5.50;2.83;;;7.00;99.90;;;7.86;100.00;99448.69;4991831;28;20757;-81
2022/02/09 00:04:00;;;;;;;4.23;3.40;;;7.00;99.90;;;7.82;100.00;99449.91;4999025;28;20468;-80
2022/02/09 00:06:46;;;;;;;16.53;3.07;;;7.00;99.90;;;7.80;100.00;99446.63;4988561;28;20467;-80
2022/02/09 00:09:16;;;;;;;3.17;2.87;;;7.00;99.90;;;7.81;100.00;99439.66;4990895;28;20466;-80
2022/02/09 00:11:49;;;;;;;4.57;3.10;;;7.00;99.90;;;7.78;100.00;99442.50;4990305;28;20466;-80
2022/02/09 00:14:26;;;;;;;4.27;3.53;;;7.00;99.90;;;7.78;100.00;99443.31;4991860;28;20518;-80
2022/02/09 00:17:16;;;;;;;3.77;3.10;;;7.00;99.90;;;7.75;100.00;99437.56;4990577;28;20513;-81
2022/02/09 00:20:09;;;;;;;3.80;3.50;;;7.00;99.90;;;7.75;100.00;99437.56;4990369;28;20493;-80
2022/02/09 00:22:50;;;;;;;2.90;2.60;;;7.00;99.90;;;7.76;100.00;99447.03;4993659;28;20908;-81
2022/02/09 00:31:15;;;;;;;3.93;3.53;;;7.00;99.90;;;7.75;100.00;99433.19;4991863;28;20554;-81
2022/02/09 00:42:28;;;;;;;3.80;3.20;;;6.90;99.90;;;7.74;100.00;99441.16;4980024;28;20518;-81
2022/02/09 01:38:33;;;;;;;4.13;3.43;;;6.80;99.90;;;7.60;100.00;99430.13;4998005;28;20529;-80
2022/02/09 01:55:29;;;;;;;7.00;3.60;;;6.70;99.90;;;7.55;100.00;99418.50;4996980;28;20582;-81
2022/02/09 01:58:00;;;;;;;5.27;3.27;;;6.70;99.90;;;7.56;100.00;99415.78;4995758;28;20459;-81
2022/02/09 02:00:32;;;;;;;4.97;3.50;;;6.70;99.90;;;7.57;100.00;99413.97;4997957;28;20568;-80
2022/02/09 02:03:02;;;;;;;6.83;4.07;;;6.70;99.90;;;7.57;100.00;99414.78;4994327;28;20998;-81
2022/02/09 02:05:35;;;;;;;10.93;3.70;;;6.70;99.90;;;7.55;100.00;99414.13;4992000;28;20470;-81
2022/02/09 02:08:07;;;;;;;4.63;4.10;;;6.70;99.90;;;7.55;100.00;99421.91;4992697;28;20519;-81
2022/02/09 02:10:48;;;;;;;3.53;3.23;;;6.80;99.90;;;7.55;100.00;99411.50;4995577;28;20467;-81
2022/02/09 02:16:27;;;;;;;4.17;3.03;;;6.70;99.90;;;7.54;100.00;99409.03;4989111;28;20476;-80
2022/02/09 02:19:00;;;;;;;6.23;4.00;;;6.70;99.90;;;7.48;100.00;99409.56;4993690;28;20470;-80
2022/02/09 02:27:29;;;;;;;4.10;3.53;;;6.50;99.90;;;7.44;100.00;99398.59;4982753;28;20470;-81
2022/02/09 02:30:43;;;;;;;4.20;3.33;;;6.60;99.90;;;7.46;100.00;99390.69;4993613;28;20968;-81
2022/02/09 02:33:33;;;;;;;9.43;4.00;;;6.60;99.90;;;7.47;100.00;99390.53;4991286;28;20597;-81
2022/02/09 02:58:52;;;;;;;4.83;3.70;;;6.70;99.90;;;7.44;100.00;99350.94;4992009;28;20471;-80
2022/02/09 03:10:08;;;;;;;5.40;4.10;;;6.50;99.90;;;7.43;100.00;99351.88;4993792;28;20501;-81
2022/02/09 03:12:43;;;;;;;4.20;3.63;;;6.50;99.90;;;7.43;100.00;99344.91;4993328;28;20581;-80
2022/02/09 03:15:30;;;;;;;4.47;3.57;;;6.60;99.90;;;7.44;100.00;99337.94;4992568;28;20584;-80
2022/02/09 03:18:24;;;;;;;4.70;3.63;;;6.60;99.90;;;7.43;100.00;99344.91;4988568;28;21384;-81
2022/02/09 03:21:00;;;;;;;5.73;3.50;;;6.60;99.90;;;7.37;100.00;99350.66;4993018;28;20474;-81
2022/02/09 03:23:43;;;;;;;4.20;3.67;;;6.50;99.90;;;7.36;100.00;99359.41;4987389;28;20475;-80
2022/02/09 03:43:24;;;;;;;5.67;3.50;;;6.50;99.90;;;7.33;100.00;99351.88;4991672;28;20472;-81
2022/02/09 03:46:18;;;;;;;8.70;3.70;;;6.50;99.90;;;7.34;100.00;99345.72;4990581;28;20526;-80
2022/02/09 03:49:01;;;;;;;8.27;4.10;;;6.50;99.90;;;7.35;100.00;99346.56;4992708;28;21003;-81
2022/02/09 03:51:44;;;;;;;5.40;4.03;;;6.50;99.90;;;7.35;100.00;99342.19;4991424;28;21307;-81
2022/02/09 03:54:24;;;;;;;5.83;3.33;;;6.50;99.90;;;7.37;100.00;99335.03;4992774;28;20837;-81
2022/02/09 03:59:39;;;;;;;4.67;4.20;;;6.60;99.90;;;7.38;100.00;99333.28;4992352;28;21024;-81
2022/02/09 04:02:11;;;;;;;9.83;4.50;;;6.50;99.90;;;7.37;100.00;99327.25;4993429;28;20462;-82
2022/02/09 04:04:40;;;;;;;5.97;4.40;;;6.60;99.90;;;7.35;100.00;99331.78;4992233;28;20474;-81
2022/02/09 04:07:12;;;;;;;9.17;4.73;;;6.60;99.90;;;7.36;100.00;99327.34;4993913;28;20470;-81
2022/02/09 04:09:47;;;;;;;7.80;5.00;;;6.60;99.90;;;7.37;100.00;99332.44;4994057;28;20974;-81
2022/02/09 04:12:30;;;;;;;8.17;4.70;;;6.60;99.90;;;7.38;100.00;99326.28;4995076;28;20470;-81
2022/02/09 04:15:15;;;;;;;7.83;4.57;;;6.50;99.90;;;7.41;100.00;99333.00;4996390;28;20505;-81
2022/02/09 04:18:01;;;;;;;6.03;4.90;;;6.60;99.90;;;7.41;100.00;99331.22;4994221;28;20498;-81
2022/02/09 04:22:27;;;;;;;7.77;5.90;;;6.60;99.90;;;7.43;100.00;99329.28;4993966;28;20559;-81
2022/02/09 04:37:35;;;;;;;35.13;20.10;;;6.70;99.90;;;7.41;100.00;99312.19;4997289;28;20462;-82
2022/02/09 04:40:41;;;;;;;;;;;;;;;;;;;;;
2022/02/09 04:47:03;;;;;;;16.70;9.97;;;6.80;99.90;;;7.45;100.00;99309.19;4964116;28;20517;-81
2022/02/09 04:50:21;;;;;;;5.60;4.20;;;6.70;99.90;;;7.47;100.00;99303.81;4993633;28;20471;-78
2022/02/09 04:54:10;;;;;;;10.37;5.90;;;6.70;99.90;;;7.47;100.00;99307.25;4979479;28;20463;-81
2022/02/09 04:59:24;;;;;;;;;;;;;;;;;;;;;
2022/02/09 05:24:37;;;;;;;11.73;7.57;;;6.90;99.90;;;7.51;100.00;99306.03;4939774;29;20924;-81
2022/02/09 05:27:16;;;;;;;8.60;5.70;;;6.90;99.90;;;7.51;100.00;99307.81;4944532;29;20952;-89
2022/02/09 05:29:46;;;;;;;16.07;7.97;;;6.90;99.90;;;7.53;100.00;99311.91;4946011;28;20946;-81
2022/02/09 05:32:16;;;;;;;9.67;6.50;;;6.90;99.90;;;7.52;100.00;99312.06;4944550;29;20500;-81
2022/02/09 05:34:49;;;;;;;8.83;6.83;;;7.00;99.90;;;7.54;100.00;99316.16;4951035;29;20504;-81
2022/02/09 05:37:21;;;;;;;15.70;7.53;;;7.00;99.90;;;7.56;100.00;99310.84;4949668;29;20529;-81
2022/02/09 05:39:53;;;;;;;12.17;7.00;;;6.90;99.90;;;7.59;100.00;99316.59;4949565;29;20454;-81
2022/02/09 05:42:25;;;;;;;9.40;6.40;;;7.00;99.90;;;7.60;100.00;99325.22;4947070;29;20450;-81
2022/02/09 05:44:57;;;;;;;8.53;5.70;;;7.00;99.90;;;7.62;100.00;99319.88;4950986;28;20540;-81
2022/02/09 05:48:17;;;;;;;9.93;5.80;;;7.00;99.90;;;7.63;100.00;99324.13;4948091;28;20454;-81
2022/02/09 05:50:53;;;;;;;8.53;5.53;;;7.00;99.90;;;7.63;100.00;99318.91;4948238;29;20827;-81
2022/02/09 05:53:26;;;;;;;11.03;6.47;;;7.10;99.90;;;7.59;100.00;99320.97;4950537;29;20468;-80
2022/02/09 05:56:08;;;;;;;10.37;7.17;;;7.10;99.90;;;7.58;100.00;99319.31;4949623;29;21021;-81
2022/02/09 05:58:48;;;;;;;9.90;6.27;;;7.00;99.90;;;7.59;100.00;99319.19;4949616;28;20504;-82
2022/02/09 06:01:21;;;;;;;12.23;6.17;;;7.00;99.90;;;7.57;100.00;99318.50;4950586;29;20517;-80
2022/02/09 06:03:52;;;;;;;11.00;6.97;;;7.00;99.90;;;7.55;100.00;99317.81;4949917;29;20639;-81
2022/02/09 06:06:26;;;;;;;10.70;6.23;;;6.90;99.90;;;7.59;100.00;99318.38;4947791;29;20505;-80
2022/02/09 06:09:00;;;;;;;11.07;6.83;;;7.00;99.90;;;7.58;100.00;99316.72;4948245;29;20548;-81
2022/02/09 06:11:40;;;;;;;18.50;7.13;;;7.00;99.90;;;7.54;100.00;99313.56;4948661;29;20602;-80
2022/02/09 06:19:50;;;;;;;8.10;6.10;;;6.90;99.90;;;7.60;100.00;99312.22;4948227;29;20847;-81
2022/02/09 06:22:23;;;;;;;9.73;6.07;;;6.90;99.90;;;7.61;100.00;99311.22;4949671;29;20450;-81
2022/02/09 06:24:56;;;;;;;8.87;5.57;;;6.90;99.90;;;7.60;100.00;99305.19;4949558;28;20476;-81
2022/02/09 06:27:28;;;;;;;8.80;6.17;;;7.00;99.90;;;7.61;100.00;99316.44;4946842;29;20449;-81
2022/02/09 06:30:01;;;;;;;7.77;5.60;;;6.90;99.90;;;7.60;100.00;99314.81;4949238;29;20461;-81
2022/02/09 06:32:32;;;;;;;8.43;6.00;;;6.90;99.90;;;7.62;100.00;99312.06;4948851;28;20549;-80
2022/02/09 06:35:33;;;;;;;13.60;4.90;;;6.80;99.90;;;7.62;100.00;99317.25;4949462;29;20509;-80
2022/02/09 06:38:05;;;;;;;7.60;5.50;;;6.90;99.90;;;7.62;100.00;99312.88;4949441;29;20449;-81
2022/02/09 06:40:54;;;;;;;9.40;6.33;;;6.80;99.90;;;7.62;100.00;99310.28;4951011;29;20540;-81
2022/02/09 06:43:43;;;;;;;9.77;5.80;;;6.80;99.90;;;7.64;100.00;99315.31;4950533;29;20461;-80
2022/02/09 06:46:16;;;;;;;9.23;5.97;;;6.80;99.90;;;7.62;100.00;99310.28;4949709;29;20458;-81
2022/02/09 06:48:51;;;;;;;11.03;5.77;;;6.80;99.90;;;7.64;100.00;99310.13;4932686;29;20553;-80
2022/02/09 06:51:30;;;;;;;7.77;4.93;;;6.90;99.90;;;7.65;100.00;99302.19;4932226;29;20458;-80
2022/02/09 06:54:07;;;;;;;10.43;5.60;;;6.90;99.90;;;7.66;100.00;99303.00;4948362;28;20821;-81
2022/02/09 06:57:03;;;;;;;10.30;6.50;;;6.90;99.90;;;7.66;100.00;99296.03;4949613;29;20915;-81
2022/02/09 06:59:41;;;;;;;10.17;5.77;;;6.90;99.90;;;7.65;100.00;99296.16;4950763;28;20525;-81
2022/02/09 07:02:14;;;;;;;10.77;5.40;;;6.90;99.90;;;7.65;100.00;99298.75;4948406;29;20524;-81
2022/02/09 07:04:49;;;;;;;11.53;5.70;;;6.90;99.90;;;7.68;100.00;99303.69;4950659;29;20450;-81
2022/02/09 07:07:30;;;;;;;13.10;6.10;;;7.00;99.90;;;7.68;100.00;99304.50;4949743;29;21016;-81
2022/02/09 07:10:03;;;;;;;7.40;5.00;;;6.90;99.90;;;7.70;100.00;99312.19;4948226;29;20469;-81
2022/02/09 07:12:34;;;;;;;11.00;5.60;;;6.90;99.90;;;7.70;100.00;99317.41;4950475;29;20482;-81
2022/02/09 07:15:17;;;;;;;8.80;5.97;;;7.00;99.90;;;7.71;100.00;99314.66;4950440;29;20489;-81
2022/02/09 07:17:50;;;;;;;9.27;5.63;;;7.10;99.90;;;7.72;100.00;99307.66;4948924;29;20453;-81
2022/02/09 07:20:29;;;;;;;13.67;5.40;;;7.20;99.90;;;7.71;100.00;99306.84;4948450;29;20817;-81
2022/02/09 07:23:06;;;;;;;10.83;6.27;;;7.10;99.90;;;7.71;100.00;99306.00;4949098;29;20453;-81
2022/02/09 07:25:46;;;;;;;7.57;5.77;;;7.20;99.90;;;7.71;100.00;99306.84;4949608;29;20445;-81
2022/02/09 07:28:19;;;;;;;12.87;6.70;;;7.10;99.90;;;7.73;100.00;99309.31;4946901;29;20470;-81
2022/02/09 07:30:53;;;;;;;11.03;6.63;;;7.20;99.90;;;7.74;100.00;99305.75;4948827;29;20476;-81
2022/02/09 07:33:23;;;;;;;11.50;7.10;;;7.20;99.90;;;7.67;100.00;99304.66;4948076;29;20453;-81
2022/02/09 07:35:56;;;;;;;13.53;7.20;;;7.10;99.90;;;7.70;100.00;99304.38;4950062;29;20505;-81
2022/02/09 07:38:29;;;;;;;14.23;7.07;;;7.10;99.90;;;7.72;100.00;99305.06;4949700;29;20521;-81
2022/02/09 07:41:01;;;;;;;13.73;7.50;;;7.10;99.90;;;7.73;100.00;99304.09;4932409;29;20487;-81
2022/02/09 07:43:43;;;;;;;15.83;7.40;;;7.10;99.90;;;7.76;100.00;99306.44;4949034;28;20955;-81
2022/02/09 07:49:07;;;;;;;11.10;7.13;;;7.20;99.90;;;7.75;100.00;99307.38;4952993;28;21020;-81
2022/02/09 07:51:53;;;;;;;18.17;8.17;;;7.10;99.90;;;7.78;100.00;99312.31;4952769;29;21014;-81
2022/02/09 07:54:26;;;;;;;13.33;7.10;;;7.20;99.90;;;7.77;100.00;99306.31;4952700;29;20445;-81
2022/02/09 07:56:57;;;;;;;15.00;7.20;;;7.20;99.90;;;7.73;100.00;99304.09;4951600;29;20536;-81
2022/02/09 07:59:28;;;;;;;13.83;7.00;;;7.10;99.90;;;7.77;100.00;99300.28;4953864;28;20991;-81
2022/02/09 08:02:00;;;;;;;23.50;8.50;;;7.10;99.90;;;7.78;100.00;99299.28;4952258;29;20464;-81
2022/02/09 08:04:32;;;;;;;13.20;7.63;;;7.10;99.90;;;7.81;100.00;99299.03;4953290;29;20445;-80
2022/02/09 08:07:06;;;;;;;18.60;7.83;;;7.20;99.90;;;7.84;100.00;99306.56;4952559;29;20449;-81
2022/02/09 08:09:47;;;;;;;17.50;7.13;;;7.20;99.90;;;7.86;100.00;99294.22;4950681;29;20456;-80
2022/02/09 08:12:36;;;;;;;12.37;7.73;;;7.20;99.90;;;7.86;100.00;99284.63;4951710;29;20949;-80
2022/02/09 08:26:48;;;;;;;14.47;7.07;;;7.30;99.90;;;7.97;100.00;99289.69;4949130;29;20556;-81
2022/02/09 08:29:24;;;;;;;13.20;7.50;;;7.40;99.90;;;7.97;100.00;99279.28;4951464;29;20513;-80
2022/02/09 08:34:47;;;;;;;18.87;8.67;;;7.40;99.90;;;7.90;100.00;99279.97;4952018;28;20464;-81
2022/02/09 08:37:18;;;;;;;15.40;9.07;;;7.20;99.90;;;7.95;100.00;99282.97;4950509;29;20522;-81
2022/02/09 08:39:49;;;;;;;16.60;7.80;;;7.40;99.90;;;7.92;100.00;99278.03;4951514;29;20559;-81
2022/02/09 08:42:19;;;;;;;17.70;8.83;;;7.40;99.90;;;7.96;100.00;99274.19;4951376;29;21236;-81
2022/02/09 08:44:55;;;;;;;14.90;8.70;;;7.40;99.90;;;7.91;100.00;99276.41;4951378;28;20476;-81
2022/02/09 08:47:48;;;;;;;16.20;7.70;;;7.30;99.90;;;7.90;100.00;99269.56;4952741;29;20453;-80
2022/02/09 08:50:22;;;;;;;16.37;8.40;;;7.20;99.90;;;7.91;100.00;99276.41;4949250;29;21022;-81
2022/02/09 08:52:56;;;;;;;17.80;9.27;;;7.30;99.90;;;7.87;100.00;99273.28;4950253;29;20454;-80
2022/02/09 08:55:27;;;;;;;18.00;9.03;;;7.20;99.90;;;7.94;100.00;99270.94;4949312;29;20462;-81
2022/02/09 08:57:58;;;;;;;16.47;8.50;;;7.40;99.90;;;7.97;100.00;99265.44;4949320;29;20504;-81
2022/02/09 09:00:35;;;;;;;32.27;10.10;;;7.40;99.90;;;8.01;100.00;99259.81;4951091;29;20493;-81
2022/02/09 09:03:15;;;;;;;14.60;8.50;;;7.50;99.90;;;8.03;100.00;99268.28;4951788;28;20942;-81
2022/02/09 09:05:50;;;;;;;15.00;7.70;;;7.50;99.90;;;7.97;100.00;99255.00;4951898;28;20450;-81
2022/02/09 09:08:42;;;;;;;14.93;8.33;;;7.40;99.90;;;7.97;100.00;99260.22;4949222;29;20543;-81
2022/02/09 09:14:38;;;;;;;17.03;7.93;;;7.30;99.90;;;8.03;100.00;99259.66;4950231;29;20458;-81
2022/02/09 10:01:06;;;;;;;6.73;3.70;;;7.90;99.90;;;8.49;100.00;99236.22;4951748;29;20453;-79
2022/02/09 10:03:33;;;;;;;5.63;3.23;;;8.00;99.90;;;8.46;100.00;99241.72;4950409;29;20903;-80
2022/02/09 10:32:40;;;;;;;14.60;3.10;;;8.00;99.90;;;8.63;100.00;99226.28;4948307;29;20513;-81
2022/02/09 10:35:19;;;;;;;5.03;2.77;;;8.00;99.90;;;8.68;100.00;99218.84;4948605;28;20453;-81
2022/02/09 10:37:49;;;;;;;11.33;3.50;;;8.10;99.90;;;8.71;100.00;99214.13;4950460;29;21001;-81
2022/02/09 10:40:38;;;;;;;8.93;3.00;;;8.20;99.90;;;8.74;100.00;99205.22;4946423;29;20455;-81
2022/02/09 10:43:29;;;;;;;7.80;2.80;;;8.20;99.90;;;8.79;100.00;99208.19;4949517;29;20508;-81
2022/02/09 10:46:16;;;;;;;4.70;2.70;;;8.20;99.90;;;8.77;100.00;99202.31;4948538;29;20462;-81
2022/02/09 10:48:56;;;;;;;15.80;3.20;;;8.20;99.90;;;8.80;100.00;99197.63;4946587;29;20464;-81
2022/02/09 10:51:31;;;;;;;11.93;2.80;;;8.20;99.90;;;8.89;100.00;99195.91;4948169;29;20738;-81
2022/02/09 10:54:07;;;;;;;9.20;3.00;;;8.30;99.90;;;8.94;100.00;99191.91;4947617;29;20453;-81
2022/02/09 10:56:39;;;;;;;11.50;3.10;;;8.30;99.90;;;8.95;100.00;99196.16;4947026;29;20454;-81
2022/02/09 10:59:11;;;;;;;7.00;2.77;;;8.40;99.90;;;9.01;100.00;99185.13;4950318;29;20559;-81
2022/02/09 11:01:44;;;;;;;11.50;2.90;;;8.40;99.90;;;9.06;100.00;99182.88;4948060;28;20445;-81
2022/02/09 11:04:16;;;;;;;8.20;2.80;;;8.50;99.90;;;9.04;100.00;99173.56;4949084;29;20454;-81
2022/02/09 11:06:56;;;;;;;12.23;3.40;;;8.40;99.90;;;9.07;100.00;99178.47;4949195;29;20492;-80
2022/02/09 11:09:31;;;;;;;7.17;3.00;;;8.50;99.90;;;9.13;100.00;99177.88;4947299;28;20835;-81
2022/02/09 11:12:05;;;;;;;5.83;2.43;;;8.60;99.90;;;9.11;100.00;99164.16;4948715;29;20557;-81
2022/02/09 11:14:42;;;;;;;8.23;2.53;;;8.50;99.90;;;9.15;100.00;99168.13;4947772;28;20483;-81
2022/02/09 11:17:12;;;;;;;16.30;2.93;;;8.60;99.90;;;9.17;100.00;99165.34;4946822;29;20480;-81
2022/02/09 11:19:46;;;;;;;6.47;2.97;;;8.70;99.90;;;9.19;100.00;99164.25;4948894;28;20512;-81
2022/02/09 11:22:22;;;;;;;9.30;3.53;;;8.70;99.90;;;9.21;100.00;99151.84;4947981;29;20508;-81
2022/02/09 11:25:15;;;;;;;5.87;2.60;;;8.70;99.90;;;9.21;100.00;99158.84;4949577;29;20454;-81
2022/02/09 11:27:58;;;;;;;6.73;3.40;;;8.60;99.90;;;9.25;100.00;99150.59;4949865;29;20564;-81
2022/02/09 11:30:34;;;;;;;13.50;3.07;;;8.70;99.90;;;9.31;100.00;99151.75;4948771;29;20952;-81
2022/02/09 11:33:21;;;;;;;6.70;3.00;;;8.80;99.90;;;9.33;100.00;99153.28;4950771;29;20454;-81
2022/02/09 11:36:26;;;;;;;11.53;2.93;;;8.80;99.90;;;9.40;100.00;99143.03;4950275;29;20599;-81
2022/02/09 11:39:03;;;;;;;7.80;3.27;;;8.90;99.90;;;9.44;100.00;99150.38;4948950;29;21037;-81
2022/02/09 11:41:36;;;;;;;9.13;2.97;;;9.00;99.90;;;9.50;100.00;99138.53;4949803;29;20942;-81
2022/02/09 11:44:28;;;;;;;18.93;4.20;;;9.10;99.90;;;9.54;100.00;99145.88;4949984;29;20526;-81
2022/02/09 11:58:52;;;;;;;8.87;2.37;;;9.30;99.90;;;9.76;100.00;99118.44;4948517;29;20501;-81
2022/02/09 12:10:27;;;;;;;7.27;2.30;;;9.30;99.90;;;9.89;100.00;99108.38;4947410;29;20518;-81
2022/02/09 12:13:04;;;;;;;12.43;2.40;;;9.40;99.90;;;9.92;100.00;99104.66;4948024;29;20482;-81
2022/02/09 12:18:38;;;;;;;8.37;1.93;;;9.50;99.90;;;10.05;100.00;99087.56;4945566;29;20502;-81
2022/02/09 12:21:20;;;;;;;6.70;1.77;;;9.50;99.90;;;10.12;100.00;99095.59;4946766;28;20450;-80
2022/02/09 12:23:54;;;;;;;6.77;2.70;;;9.70;99.90;;;10.19;100.00;99086.16;4947180;29;20530;-81
2022/02/09 12:26:27;;;;;;;4.33;2.00;;;9.70;99.90;;;10.21;100.00;99081.59;4946265;29;20459;-81
2022/02/09 12:29:01;;;;;;;17.20;1.97;;;9.80;99.90;;;10.26;100.00;99084.56;4947438;29;20973;-82
2022/02/09 12:31:33;;;;;;;8.53;3.17;;;9.70;99.90;;;10.30;100.00;99075.44;4948481;29;20516;-80
2022/02/09 12:34:06;;;;;;;5.80;1.87;;;9.90;99.90;;;10.38;100.00;99077.22;4953475;29;20449;-81
2022/02/09 12:36:37;;;;;;;4.17;1.70;;;9.90;99.90;;;10.41;100.00;99076.91;4949734;29;20799;-81
2022/02/09 12:39:09;;;;;;;5.70;1.90;;;9.90;99.90;;;10.49;100.00;99069.06;4951358;29;20505;-81
2022/02/09 12:41:40;;;;;;;10.43;2.70;;;10.00;99.90;;;10.56;100.00;99073.50;4949043;29;20822;-81
2022/02/09 12:44:12;;;;;;;4.27;1.77;;;10.10;99.90;;;10.59;100.00;99077.59;4951061;29;20450;-81
2022/02/09 12:46:45;;;;;;;6.93;1.97;;;10.00;99.90;;;10.62;100.00;99071.22;4951404;29;20456;-81
2022/02/09 12:49:16;;;;;;;12.30;2.37;;;10.10;99.90;;;10.66;100.00;99065.50;4953310;29;20934;-81
2022/02/09 12:51:50;;;;;;;4.13;2.13;;;10.10;99.90;;;10.68;100.00;99062.72;4951954;29;20453;-80
2022/02/09 12:54:23;;;;;;;9.90;2.33;;;10.20;99.90;;;10.72;100.00;99059.63;4952276;29;20457;-82
2022/02/09 12:56:56;;;;;;;7.67;1.80;;;10.20;99.90;;;10.74;100.00;99062.91;4951512;29;20457;-81
2022/02/09 12:59:27;;;;;;;1.83;1.50;;;10.30;99.90;;;10.82;100.00;99064.69;4950966;29;20536;-81
2022/02/09 13:01:59;;;;;;;4.13;1.57;;;10.30;99.90;;;10.82;100.00;99059.47;4951508;29;20504;-81
2022/02/09 13:04:33;;;;;;;6.10;1.93;;;10.30;99.90;;;10.86;100.00;99060.78;4950606;29;20510;-82
2022/02/09 13:07:08;;;;;;;4.67;1.70;;;10.30;99.90;;;10.87;100.00;99050.13;4951608;29;21021;-81
2022/02/09 13:09:44;;;;;;;4.20;1.80;;;10.30;99.90;;;10.90;100.00;99046.38;4950181;29;20474;-81
2022/02/09 13:12:23;;;;;;;3.97;1.80;;;10.40;99.90;;;10.94;100.00;99047.69;4950949;29;20577;-81
2022/02/09 13:14:58;;;;;;;4.77;1.80;;;10.40;99.90;;;11.00;100.00;99049.66;4950668;29;20493;-81
2022/02/09 13:18:14;;;;;;;10.90;3.00;;;10.50;99.90;;;11.01;100.00;99040.81;4951291;29;20451;-81
2022/02/09 13:22:01;;;;;;;9.63;2.40;;;10.60;99.90;;;11.02;100.00;99039.84;4950743;29;20494;-81
2022/02/09 14:11:44;;;;;;;7.50;2.20;;;10.80;99.90;;;11.38;100.00;98988.72;4948471;29;20477;-81
2022/02/09 14:17:32;;;;;;;11.70;2.20;;;11.00;99.90;;;11.40;100.00;98986.75;4949466;29;20447;-81
2022/02/09 14:53:38;;;;;;;10.00;2.83;;;11.80;99.90;;;12.15;99.16;98960.81;4948629;28;20460;-80
2022/02/09 14:56:15;;;;;;;23.67;4.57;;;11.70;99.90;;;12.16;99.38;98957.22;4950150;29;20497;-81
2022/02/09 14:58:55;;;;;;;2.10;1.47;;;11.70;99.90;;;12.16;99.97;98959.84;4948860;29;20824;-80
2022/02/09 15:01:34;;;;;;;3.07;1.10;;;11.70;99.90;;;12.19;99.86;98956.88;4947213;29;20457;-81
2022/02/09 15:07:05;;;;;;;2.63;1.50;;;11.80;99.90;;;12.17;98.08;98952.81;4950052;28;20457;-81
2022/02/09 15:09:45;;;;;;;7.13;1.80;;;11.70;99.90;;;12.19;96.67;98946.38;4947850;29;20453;-81
2022/02/09 15:12:21;;;;;;;1.97;1.40;;;11.70;99.90;;;12.21;98.17;98949.66;4951092;29;20485;-81
2022/02/09 15:15:13;;;;;;;3.10;1.30;;;11.80;99.90;;;12.22;98.59;98953.09;4949658;29;20485;-82
2022/02/09 15:18:14;;;;;;;8.20;1.80;;;11.80;99.90;;;12.23;98.45;98950.28;4949468;28;20961;-80
2022/02/09 15:21:01;;;;;;;4.43;1.60;;;11.80;99.90;;;12.20;96.91;98944.56;4949315;29;20538;-80
2022/02/09 15:23:42;;;;;;;2.07;1.40;;;11.80;99.90;;;12.21;97.47;98938.34;4949624;29;20512;-81
2022/02/09 15:26:17;;;;;;;9.97;1.73;;;11.80;99.90;;;12.18;95.62;98934.28;4950177;29;20449;-81
2022/02/09 15:28:49;;;;;;;5.77;2.33;;;11.60;99.90;;;12.20;96.83;98931.47;4948090;29;20460;-81
2022/02/09 15:31:35;;;;;;;2.10;1.60;;;11.70;99.90;;;12.17;97.59;98937.88;4950406;29;20453;-80
2022/02/09 15:34:15;;;;;;;13.80;3.10;;;11.70;99.90;;;12.08;100.00;98933.66;4948665;29;20453;-81
2022/02/09 15:37:04;;;;;;;4.70;1.70;;;11.60;99.90;;;12.01;99.43;98944.03;4949535;28;20453;-81
2022/02/09 15:39:42;;;;;;;5.30;2.07;;;11.60;99.90;;;11.90;100.00;98935.78;4949520;28;20525;-81
2022/02/09 15:42:45;;;;;;;14.43;3.00;;;11.30;99.90;;;11.83;100.00;98934.84;4949453;28;20450;-81
2022/02/09 15:56:46;;;;;;;5.83;1.57;;;10.70;99.90;;;11.25;100.00;98943.91;4946796;29;20462;-81
2022/02/09 15:59:39;;;;;;;2.57;1.80;;;10.60;99.90;;;11.18;100.00;98945.56;4948559;29;20505;-81
2022/02/09 16:11:00;;;;;;;3.77;1.40;;;10.20;99.90;;;10.69;100.00;98939.59;4949156;29;20555;-81
2022/02/09 16:16:57;;;;;;;33.67;6.77;;;10.00;99.90;;;10.51;100.00;98939.00;4908161;29;20457;-80
2022/02/09 16:19:57;;;;;;;18.47;3.60;;;9.90;99.90;;;10.39;100.00;98932.44;4951207;28;20584;-81
2022/02/09 16:22:31;;;;;;;5.10;1.70;;;9.80;99.90;;;10.26;100.00;98938.19;4951723;29;20458;-81
2022/02/09 16:25:23;;;;;;;2.80;1.83;;;9.60;99.90;;;10.21;100.00;98935.22;4947306;29;21019;-84
2022/02/09 16:33:48;;;;;;;3.27;1.80;;;9.20;99.90;;;9.90;100.00;98931.56;4945572;29;20467;-80
2022/02/09 16:44:38;;;;;;;11.87;6.10;;;8.90;99.90;;;9.55;100.00;98936.03;4943872;28;20848;-80
2022/02/09 16:47:25;;;;;;;3.53;1.73;;;8.70;99.90;;;9.44;100.00;98928.50;4943916;29;20453;-75
2022/02/09 16:50:06;;;;;;;3.03;1.90;;;8.60;99.90;;;9.37;100.00;98935.31;4944482;29;20458;-76
2022/02/09 16:52:41;;;;;;;5.10;2.07;;;8.40;99.90;;;9.26;100.00;98929.59;4945256;28;20453;-75
2022/02/09 16:55:36;;;;;;;5.07;2.10;;;8.40;99.90;;;9.15;100.00;98933.28;4944608;29;20706;-76
2022/02/09 17:20:27;;;;;;;3.03;1.87;;;7.90;99.90;;;8.65;100.00;98950.56;4940056;28;20537;-79
2022/02/09 17:22:56;;;;;;;2.57;1.90;;;7.80;99.90;;;8.61;100.00;98957.09;4936803;28;20962;-76
2022/02/09 17:25:26;;;;;;;2.50;1.70;;;7.70;99.90;;;8.59;100.00;98963.25;4941392;28;21069;-75
2022/02/09 17:27:56;;;;;;;2.60;1.87;;;7.70;99.90;;;8.55;100.00;98969.75;4938213;28;20482;-76
2022/02/09 17:30:58;;;;;;;8.50;2.50;;;7.60;99.90;;;8.42;100.00;98971.94;4939818;29;20516;-75
2022/02/09 17:33:46;;;;;;;4.20;2.37;;;7.60;99.90;;;8.26;100.00;98968.34;4940736;28;20946;-76
2022/02/09 17:36:42;;;;;;;4.77;2.10;;;7.40;99.90;;;8.13;100.00;98968.69;4936402;29;20473;-76
2022/02/09 17:39:26;;;;;;;2.50;1.83;;;7.30;99.90;;;8.09;100.00;98962.94;4930490;28;20472;-76
2022/02/09 17:53:32;;;;;;;3.00;2.23;;;7.10;99.90;;;7.87;100.00;98955.59;4938025;29;20844;-75
2022/02/09 17:56:06;;;;;;;5.07;2.33;;;7.00;99.90;;;7.88;100.00;98959.03;4938948;28;20461;-75
2022/02/09 17:58:45;;;;;;;3.17;2.07;;;7.00;99.90;;;7.74;100.00;98960.31;4934332;28;20489;-75
2022/02/09 18:01:19;;;;;;;3.13;2.30;;;6.80;99.90;;;7.66;100.00;98964.63;4926368;28;20512;-75
2022/02/09 18:03:53;;;;;;;4.53;2.60;;;6.70;99.90;;;7.62;100.00;98968.47;4938491;28;20469;-74
2022/02/09 18:06:27;;;;;;;3.57;2.43;;;6.70;99.90;;;7.47;100.00;98968.13;4935116;29;20600;-76
2022/02/09 18:09:05;;;;;;;4.30;2.53;;;6.50;99.90;;;7.27;100.00;98959.63;4941697;29;20492;-76
2022/02/09 18:11:46;;;;;;;10.37;2.70;;;6.30;99.90;;;7.13;100.00;98954.88;4941732;29;20483;-76
2022/02/09 18:15:09;;;;;;;4.83;2.83;;;6.20;99.90;;;7.09;100.00;98956.13;4941344;29;20489;-76
2022/02/09 18:29:04;;;;;;;5.47;3.73;;;6.00;99.90;;;7.03;100.00;98964.50;4940430;28;20544;-75
2022/02/09 18:31:37;;;;;;;11.23;5.17;;;6.00;99.90;;;7.05;100.00;98957.34;4941143;29;20557;-76
2022/02/09 18:34:21;;;;;;;7.50;4.17;;;6.20;99.90;;;6.95;100.00;98954.81;4940647;29;20509;-76
2022/02/09 18:45:25;;;;;;;5.07;3.07;;;5.60;99.90;;;6.74;100.00;98958.53;4939664;29;20470;-75
2022/02/09 18:48:09;;;;;;;19.63;3.93;;;5.70;99.90;;;6.71;100.00;98964.03;4940074;29;20470;-75
2022/02/09 19:04:34;;;;;;;8.17;3.10;;;5.50;99.90;;;6.36;100.00;98949.03;4936723;29;20473;-75
2022/02/09 19:18:44;;;;;;;7.27;4.10;;;5.30;99.90;;;6.29;100.00;98940.97;4850946;29;20474;-75
2022/02/09 19:32:43;;;;;;;8.13;3.97;;;4.90;99.90;;;5.87;100.00;98929.22;4926419;28;20474;-77
2022/02/09 19:46:47;;;;;;;5.83;3.40;;;4.80;99.90;;;5.73;100.00;98926.97;4906514;29;20478;-75
2022/02/09 19:49:34;;;;;;;5.30;2.93;;;4.70;99.90;;;5.78;100.00;98925.63;4942924;29;21008;-75
2022/02/09 19:52:16;;;;;;;7.73;3.47;;;4.80;99.90;;;5.75;100.00;98930.28;4943889;28;20473;-75
2022/02/09 19:55:02;;;;;;;9.03;3.70;;;4.80;99.90;;;5.65;100.00;98929.44;4942502;28;20500;-75
2022/02/09 19:57:35;;;;;;;5.10;3.37;;;4.70;99.90;;;5.44;100.00;98935.53;4940912;28;21041;-75
2022/02/09 20:00:06;;;;;;;8.57;3.60;;;4.40;99.90;;;5.46;100.00;98938.00;4946701;28;20556;-75
2022/02/09 20:02:40;;;;;;;4.50;3.27;;;4.40;99.90;;;5.42;100.00;98931.41;4945733;28;20747;-75
2022/02/09 20:05:10;;;;;;;8.77;3.67;;;4.40;99.90;;;5.41;100.00;98933.22;4943553;28;20528;-75
2022/02/09 20:07:39;;;;;;;5.80;3.80;;;4.40;99.90;;;5.29;100.00;98929.06;4940723;28;21073;-74